createdAt,value
2018-05-13T00:00:13.381Z,68.50
2018-05-13T00:02:40.894Z,68.70
2018-05-13T00:05:08.455Z,68.77
2018-05-13T00:07:36.100Z,68.45
2018-05-13T00:10:03.573Z,69.27
2018-05-13T00:12:31.052Z,68.95
2018-05-13T00:14:58.561Z,68.96
2018-05-13T00:17:26.049Z,69.60
2018-05-13T00:19:53.654Z,69.50
2018-05-13T00:22:21.148Z,70.80
2018-05-13T00:24:48.671Z,70.38
2018-05-13T00:27:16.205Z,70.31
2018-05-13T00:29:43.689Z,70.82
2018-05-13T00:32:11.534Z,70.97
2018-05-13T00:34:39.020Z,70.99
2018-05-13T00:37:06.541Z,70.48
2018-05-13T00:39:34.061Z,70.46
2018-05-13T00:42:01.552Z,70.73
2018-05-13T00:44:29.085Z,72.01
2018-05-13T00:46:56.576Z,72.03
2018-05-13T00:49:24.056Z,72.13
2018-05-13T00:51:51.601Z,72.93
2018-05-13T00:54:30.853Z,72.15
2018-05-13T00:56:58.629Z,72.02
2018-05-13T00:59:26.133Z,72.49
2018-05-13T01:01:53.617Z,73.06
2018-05-13T01:04:21.152Z,73.89
2018-05-13T01:06:48.637Z,72.86
2018-05-13T01:09:16.565Z,73.31
2018-05-13T01:11:44.056Z,74.24
2018-05-13T01:14:11.541Z,73.92
2018-05-13T01:16:39.063Z,74.65
2018-05-13T01:19:06.549Z,74.62
2018-05-13T01:21:34.221Z,75.14
2018-05-13T01:24:01.713Z,74.93
2018-05-13T01:26:29.290Z,74.71
2018-05-13T01:28:56.794Z,74.83
2018-05-13T01:31:24.276Z,73.90
2018-05-13T01:33:51.980Z,72.85
2018-05-13T01:36:19.501Z,74.20
2018-05-13T01:38:46.984Z,74.87
2018-05-13T01:41:14.493Z,75.52
2018-05-13T01:43:41.987Z,74.87
2018-05-13T01:46:09.645Z,75.25
2018-05-13T01:48:37.134Z,75.72
2018-05-13T01:51:04.621Z,75.51
2018-05-13T01:53:32.175Z,74.56
2018-05-13T01:55:59.685Z,75.30
2018-05-13T01:58:27.417Z,73.93
2018-05-13T02:00:54.907Z,72.98
2018-05-13T02:03:22.389Z,74.07
2018-05-13T02:05:49.921Z,73.54
2018-05-13T02:08:17.418Z,72.93
2018-05-13T02:10:44.968Z,73.76
2018-05-13T02:13:12.453Z,71.70
2018-05-13T02:15:39.937Z,72.64
2018-05-13T02:18:07.441Z,72.03
2018-05-13T02:20:34.935Z,73.00
2018-05-13T02:23:02.449Z,73.17
2018-05-13T02:25:29.945Z,73.94
2018-05-13T02:27:57.433Z,74.95
2018-05-13T02:30:24.945Z,75.33
2018-05-13T02:32:52.433Z,76.13
2018-05-13T02:35:20.061Z,75.72
2018-05-13T02:37:47.547Z,77.54
2018-05-13T02:40:15.041Z,77.83
2018-05-13T02:42:42.561Z,78.72
2018-05-13T02:45:10.046Z,81.88
2018-05-13T02:47:37.709Z,82.67
2018-05-13T02:50:05.202Z,82.04
2018-05-13T02:52:32.693Z,81.41
2018-05-13T02:55:00.225Z,81.02
2018-05-13T02:57:27.729Z,83.05
2018-05-13T02:59:55.256Z,82.35
2018-05-13T03:02:22.750Z,83.56
2018-05-13T03:04:50.237Z,84.75
2018-05-13T03:07:17.749Z,86.00
2018-05-13T03:09:45.257Z,88.92
2018-05-13T03:12:12.770Z,89.88
2018-05-13T03:14:40.249Z,88.67
2018-05-13T03:17:07.729Z,90.69
2018-05-13T03:19:35.243Z,90.45
2018-05-13T03:22:02.732Z,88.71
2018-05-13T03:24:30.345Z,85.37
2018-05-13T03:26:57.832Z,85.03
2018-05-13T03:29:25.313Z,86.93
2018-05-13T03:31:52.821Z,87.09
2018-05-13T03:34:20.317Z,87.07
2018-05-13T03:36:48.033Z,88.70
2018-05-13T03:39:15.513Z,89.35
2018-05-13T03:41:43.002Z,88.80
2018-05-13T03:44:10.507Z,89.47
2018-05-13T03:46:37.985Z,89.50
2018-05-13T03:49:05.513Z,89.74
2018-05-13T03:51:32.984Z,90.30
2018-05-13T03:54:00.473Z,87.70
2018-05-13T03:56:27.993Z,88.66
2018-05-13T03:58:55.476Z,88.30
2018-05-13T04:01:23.360Z,88.78
2018-05-13T04:03:50.861Z,87.84
2018-05-13T04:06:18.336Z,87.16
2018-05-13T04:08:57.780Z,89.67
2018-05-13T04:11:37.141Z,91.46
2018-05-13T04:14:17.406Z,92.31
2018-05-13T04:16:44.891Z,92.81
2018-05-13T04:19:12.517Z,90.60
2018-05-13T04:21:40.002Z,92.07
2018-05-13T04:24:07.481Z,91.91
2018-05-13T04:26:34.991Z,87.84
2018-05-13T04:29:02.467Z,85.49
2018-05-13T04:31:29.997Z,87.97
2018-05-13T04:33:57.472Z,87.66
2018-05-13T04:36:24.944Z,88.55
2018-05-13T04:38:52.450Z,90.82
2018-05-13T04:41:19.948Z,92.21
2018-05-13T04:43:47.629Z,92.98
2018-05-13T04:46:15.125Z,92.07
2018-05-13T04:48:42.608Z,93.93
2018-05-13T04:51:10.113Z,93.85
2018-05-13T04:53:37.613Z,92.57
2018-05-13T04:56:05.117Z,91.21
2018-05-13T04:58:32.601Z,93.15
2018-05-13T05:01:00.324Z,93.31
2018-05-13T05:03:27.821Z,93.00
2018-05-13T05:05:55.304Z,93.98
2018-05-13T05:08:22.816Z,94.91
2018-05-13T05:10:50.308Z,94.98
2018-05-13T05:13:17.846Z,94.58
2018-05-13T05:15:45.329Z,94.83
2018-05-13T05:18:12.825Z,93.12
2018-05-13T05:20:40.332Z,91.35
2018-05-13T05:23:07.816Z,92.23
2018-05-13T05:25:35.457Z,93.20
2018-05-13T05:28:02.941Z,92.58
2018-05-13T05:30:30.436Z,93.66
2018-05-13T05:32:57.949Z,93.90
2018-05-13T05:35:25.438Z,93.61
2018-05-13T05:37:53.281Z,94.06
2018-05-13T05:40:20.765Z,94.71
2018-05-13T05:42:48.296Z,95.49
2018-05-13T05:45:15.800Z,93.89
2018-05-13T05:47:43.285Z,91.55
2018-05-13T05:50:10.812Z,92.85
2018-05-13T05:52:38.293Z,91.87
2018-05-13T05:55:05.785Z,89.85
2018-05-13T05:57:33.310Z,90.66
2018-05-13T06:00:00.793Z,91.00
2018-05-13T06:02:28.325Z,88.14
2018-05-13T06:04:55.809Z,88.93
2018-05-13T06:07:23.296Z,90.13
2018-05-13T06:09:50.813Z,90.87
2018-05-13T06:12:18.314Z,92.09
2018-05-13T06:14:45.833Z,92.79
2018-05-13T06:17:13.328Z,91.48
2018-05-13T06:19:40.806Z,89.89
2018-05-13T06:22:08.345Z,88.93
2018-05-13T06:24:35.853Z,90.80
2018-05-13T06:27:03.501Z,91.15
2018-05-13T06:29:30.991Z,91.87
2018-05-13T06:31:58.539Z,91.78
2018-05-13T06:34:26.009Z,89.92
2018-05-13T06:36:53.493Z,91.52
2018-05-13T06:39:21.176Z,92.15
2018-05-13T06:41:48.661Z,92.47
2018-05-13T06:44:16.163Z,92.93
2018-05-13T06:46:43.673Z,92.59
2018-05-13T06:49:11.165Z,92.70
2018-05-13T06:51:38.672Z,91.91
2018-05-13T06:54:06.181Z,88.87
2018-05-13T06:56:33.673Z,88.29
2018-05-13T06:59:01.197Z,88.47
2018-05-13T07:01:28.725Z,85.07
2018-05-13T07:03:56.238Z,87.27
2018-05-13T07:06:23.740Z,88.60
2018-05-13T07:08:51.229Z,86.62
2018-05-13T07:11:18.988Z,86.28
2018-05-13T07:13:46.474Z,88.22
2018-05-13T07:16:13.961Z,90.57
2018-05-13T07:18:41.522Z,90.34
2018-05-13T07:21:09.030Z,91.38
2018-05-13T07:23:36.513Z,92.16
2018-05-13T07:26:04.189Z,92.36
2018-05-13T07:28:31.690Z,90.16
2018-05-13T07:30:59.166Z,89.20
2018-05-13T07:33:26.833Z,91.12
2018-05-13T07:35:54.309Z,89.29
2018-05-13T07:38:21.789Z,87.09
2018-05-13T07:40:49.327Z,90.67
2018-05-13T07:43:16.821Z,91.21
2018-05-13T07:45:44.681Z,91.37
2018-05-13T07:48:12.152Z,91.59
2018-05-13T07:50:39.636Z,92.05
2018-05-13T07:53:07.144Z,92.29
2018-05-13T07:55:34.619Z,90.36
2018-05-13T07:58:02.156Z,92.97
2018-05-13T08:00:29.646Z,91.76
2018-05-13T08:02:57.145Z,87.80
2018-05-13T08:05:24.700Z,87.31
2018-05-13T08:07:52.193Z,90.02
2018-05-13T08:10:20.025Z,89.82
2018-05-13T08:12:47.737Z,90.35
2018-05-13T08:15:15.249Z,90.56
2018-05-13T08:17:42.847Z,87.29
2018-05-13T08:20:10.521Z,90.37
2018-05-13T08:22:38.207Z,92.31
2018-05-13T08:25:05.697Z,92.33
2018-05-13T08:27:33.177Z,91.50
2018-05-13T08:30:00.709Z,91.58
2018-05-13T08:32:28.217Z,92.23
2018-05-13T08:34:55.828Z,92.55
2018-05-13T08:37:23.308Z,90.16
2018-05-13T08:39:50.809Z,88.32
2018-05-13T08:42:18.313Z,87.56
2018-05-13T08:44:45.825Z,87.46
2018-05-13T08:47:13.469Z,87.90
2018-05-13T08:49:40.949Z,87.12
2018-05-13T08:52:08.438Z,87.68
2018-05-13T08:54:35.969Z,88.11
2018-05-13T08:57:03.493Z,88.24
2018-05-13T08:59:31.393Z,89.22
2018-05-13T09:01:58.861Z,92.42
2018-05-13T09:04:26.353Z,94.30
2018-05-13T09:06:53.907Z,94.12
2018-05-13T09:09:21.401Z,92.22
2018-05-13T09:11:48.940Z,93.48
2018-05-13T09:14:16.418Z,92.72
2018-05-13T09:16:43.904Z,92.82
2018-05-13T09:19:11.441Z,93.36
2018-05-13T09:21:38.961Z,93.85
2018-05-13T09:24:06.761Z,94.05
2018-05-13T09:26:34.278Z,92.61
2018-05-13T09:29:01.765Z,92.78
2018-05-13T09:31:29.280Z,93.16
2018-05-13T09:33:56.793Z,94.04
2018-05-13T09:36:24.315Z,93.17
2018-05-13T09:38:51.814Z,93.83
2018-05-13T09:41:19.795Z,90.13
2018-05-13T09:43:47.316Z,89.59
2018-05-13T09:46:14.797Z,88.70
2018-05-13T09:48:42.326Z,87.60
2018-05-13T09:51:09.863Z,90.00
2018-05-13T09:53:37.334Z,92.04
2018-05-13T09:56:04.841Z,91.07
2018-05-13T09:58:32.394Z,91.37
2018-05-13T10:01:00.250Z,92.86
2018-05-13T10:03:27.735Z,92.24
2018-05-13T10:05:55.221Z,92.45
2018-05-13T10:08:22.725Z,88.19
2018-05-13T10:10:50.237Z,88.04
2018-05-13T10:13:17.754Z,84.88
2018-05-13T10:15:45.237Z,85.98
2018-05-13T10:18:12.734Z,84.00
2018-05-13T10:20:40.237Z,85.68
2018-05-13T10:23:07.755Z,85.53
2018-05-13T10:25:35.288Z,85.01
2018-05-13T10:28:03.648Z,83.84
2018-05-13T10:30:31.134Z,83.23
2018-05-13T10:32:58.660Z,83.21
2018-05-13T10:35:26.157Z,83.45
2018-05-13T10:37:53.953Z,83.87
2018-05-13T10:40:21.456Z,83.27
2018-05-13T10:42:48.939Z,81.31
2018-05-13T10:45:17.229Z,82.57
2018-05-13T10:47:44.721Z,81.24
2018-05-13T10:50:12.225Z,81.39
2018-05-13T10:52:39.721Z,81.84
2018-05-13T10:55:07.201Z,81.99
2018-05-13T10:57:34.722Z,80.54
2018-05-13T11:00:02.238Z,82.36
2018-05-13T11:02:29.965Z,81.46
2018-05-13T11:04:57.469Z,82.05
2018-05-13T11:07:24.971Z,81.99
2018-05-13T11:09:52.489Z,80.77
2018-05-13T11:12:19.990Z,82.52
2018-05-13T11:14:47.743Z,80.71
2018-05-13T11:17:15.225Z,79.64
2018-05-13T11:19:42.725Z,78.30
2018-05-13T11:22:10.241Z,77.76
2018-05-13T11:24:37.738Z,77.72
2018-05-13T11:27:06.531Z,78.97
2018-05-13T11:29:34.013Z,76.98
2018-05-13T11:32:01.490Z,77.04
2018-05-13T11:34:29.069Z,77.62
2018-05-13T11:36:56.545Z,76.65
2018-05-13T11:39:24.369Z,75.80
2018-05-13T11:41:51.854Z,76.15
2018-05-13T11:44:19.344Z,77.07
2018-05-13T11:46:47.751Z,77.86
2018-05-13T11:49:15.245Z,76.22
2018-05-13T11:51:42.820Z,76.65
2018-05-13T11:54:10.321Z,76.14
2018-05-13T11:56:37.813Z,75.25
2018-05-13T11:59:05.363Z,76.65
2018-05-13T12:01:32.856Z,74.95
2018-05-13T12:04:00.372Z,74.60
2018-05-13T12:06:27.883Z,73.90
2018-05-13T12:08:55.360Z,74.86
2018-05-13T12:11:22.889Z,74.92
2018-05-13T12:13:50.374Z,75.65
2018-05-13T12:16:18.102Z,77.25
2018-05-13T12:18:46.067Z,75.79
2018-05-13T12:21:13.565Z,75.33
2018-05-13T12:23:41.230Z,74.91
2018-05-13T12:26:08.712Z,74.32
2018-05-13T12:28:36.437Z,74.93
2018-05-13T12:31:03.919Z,73.31
2018-05-13T12:33:31.400Z,72.83
2018-05-13T12:35:59.682Z,74.12
2018-05-13T12:38:27.201Z,73.39
2018-05-13T12:40:55.056Z,73.85
2018-05-13T12:43:22.535Z,72.80
2018-05-13T12:45:50.023Z,73.90
2018-05-13T12:48:17.547Z,72.82
2018-05-13T12:50:45.127Z,73.11
2018-05-13T12:53:12.673Z,73.82
2018-05-13T12:55:40.153Z,73.26
2018-05-13T12:58:07.739Z,73.23
2018-05-13T13:00:35.265Z,72.00
2018-05-13T13:03:02.745Z,73.41
2018-05-13T13:05:30.532Z,72.41
2018-05-13T13:07:58.011Z,72.94
2018-05-13T13:10:25.490Z,73.99
2018-05-13T13:12:53.049Z,73.80
2018-05-13T13:15:20.512Z,74.53
2018-05-13T13:17:48.190Z,73.62
2018-05-13T13:20:15.769Z,73.27
2018-05-13T13:22:43.269Z,72.86
2018-05-13T13:25:11.381Z,73.91
2018-05-13T13:27:38.863Z,73.55
2018-05-13T13:30:06.382Z,74.04
2018-05-13T13:32:33.868Z,73.71
2018-05-13T13:35:01.369Z,74.16
2018-05-13T13:37:28.873Z,74.55
2018-05-13T13:39:56.377Z,74.35
2018-05-13T13:42:24.044Z,73.80
2018-05-13T13:44:51.526Z,73.37
2018-05-13T13:47:19.111Z,71.58
2018-05-13T13:49:46.773Z,72.58
2018-05-13T13:52:14.261Z,71.18
2018-05-13T13:54:42.185Z,72.36
2018-05-13T13:57:09.676Z,72.42
2018-05-13T13:59:37.155Z,71.98
2018-05-13T14:02:04.673Z,72.35
2018-05-13T14:04:32.157Z,72.91
2018-05-13T14:07:00.061Z,72.65
2018-05-13T14:09:27.541Z,72.74
2018-05-13T14:11:55.047Z,74.37
2018-05-13T14:14:22.553Z,74.70
2018-05-13T14:16:50.033Z,74.45
2018-05-13T14:19:17.700Z,74.89
2018-05-13T14:21:45.200Z,75.05
2018-05-13T14:24:12.715Z,75.65
2018-05-13T14:26:40.241Z,75.43
2018-05-13T14:29:07.896Z,75.50
2018-05-13T14:31:35.621Z,76.38
2018-05-13T14:34:03.115Z,76.18
2018-05-13T14:36:30.628Z,77.02
2018-05-13T14:38:58.151Z,76.92
2018-05-13T14:41:25.691Z,77.09
2018-05-13T14:43:53.337Z,77.26
2018-05-13T14:46:20.852Z,78.11
2018-05-13T14:48:48.333Z,77.73
2018-05-13T14:51:15.859Z,77.45
2018-05-13T14:53:43.355Z,77.67
2018-05-13T14:56:11.088Z,77.06
2018-05-13T14:58:38.590Z,77.51
2018-05-13T15:01:07.060Z,77.50
2018-05-13T15:03:34.587Z,77.49
2018-05-13T15:06:02.092Z,77.57
2018-05-13T15:08:30.573Z,76.88
2018-05-13T15:10:58.062Z,77.70
2018-05-13T15:13:25.575Z,77.20
2018-05-13T15:15:53.096Z,77.15
2018-05-13T15:18:20.612Z,76.49
2018-05-13T15:20:48.143Z,75.87
2018-05-13T15:23:15.659Z,75.83
2018-05-13T15:25:43.145Z,75.82
2018-05-13T15:28:10.664Z,77.47
2018-05-13T15:30:38.161Z,77.69
2018-05-13T15:33:06.001Z,76.43
2018-05-13T15:35:33.521Z,77.16
2018-05-13T15:38:01.725Z,78.04
2018-05-13T15:40:29.250Z,78.40
2018-05-13T15:42:57.300Z,77.95
2018-05-13T15:45:24.747Z,79.02
2018-05-13T15:47:52.244Z,79.18
2018-05-13T15:50:19.756Z,78.81
2018-05-13T15:52:47.284Z,79.22
2018-05-13T15:55:14.916Z,79.57
2018-05-13T15:57:42.760Z,78.36
2018-05-13T16:00:10.277Z,78.47
2018-05-13T16:02:37.818Z,79.72
2018-05-13T16:05:06.026Z,78.94
2018-05-13T16:07:33.565Z,78.64
2018-05-13T16:10:01.138Z,78.88
2018-05-13T16:12:28.631Z,79.31
2018-05-13T16:14:56.182Z,79.61
2018-05-13T16:17:23.697Z,80.50
2018-05-13T16:19:51.198Z,79.28
2018-05-13T16:22:18.736Z,79.14
2018-05-13T16:24:46.265Z,79.32
2018-05-13T16:27:13.769Z,79.47
2018-05-13T16:29:41.739Z,79.35
2018-05-13T16:32:09.706Z,79.25
2018-05-13T16:34:37.367Z,79.36
2018-05-13T16:37:04.864Z,79.29
2018-05-13T16:39:32.417Z,79.22
2018-05-13T16:42:00.399Z,79.78
2018-05-13T16:44:27.906Z,79.70
2018-05-13T16:46:55.939Z,80.75
2018-05-13T16:49:23.435Z,80.44
2018-05-13T16:51:50.985Z,80.21
2018-05-13T16:54:18.520Z,79.96
2018-05-13T16:56:46.672Z,80.77
2018-05-13T16:59:14.329Z,80.87
2018-05-13T17:01:41.837Z,81.57
2018-05-13T17:04:09.368Z,81.30
2018-05-13T17:06:36.898Z,81.73
2018-05-13T17:09:04.400Z,81.83
2018-05-13T17:11:33.340Z,80.86
2018-05-13T17:14:00.853Z,80.71
2018-05-13T17:16:28.361Z,82.22
2018-05-13T17:18:55.932Z,81.93
2018-05-13T17:21:23.439Z,81.92
2018-05-13T17:23:51.862Z,81.84
2018-05-13T17:26:19.361Z,81.96
2018-05-13T17:28:46.888Z,82.12
2018-05-13T17:31:14.463Z,82.29
2018-05-13T17:33:41.974Z,82.30
2018-05-13T17:36:09.655Z,81.96
2018-05-13T17:38:37.149Z,82.46
2018-05-13T17:41:04.656Z,81.79
2018-05-13T17:43:32.189Z,81.85
2018-05-13T17:45:59.837Z,83.10
2018-05-13T17:48:27.424Z,82.46
2018-05-13T17:50:54.924Z,82.51
2018-05-13T17:53:22.457Z,83.17
2018-05-13T17:55:50.559Z,83.19
2018-05-13T17:58:18.116Z,83.42
2018-05-13T18:00:46.305Z,83.07
2018-05-13T18:03:13.933Z,82.78
2018-05-13T18:05:41.447Z,83.45
2018-05-13T18:08:10.941Z,83.33
2018-05-13T18:10:38.510Z,83.33
2018-05-13T18:13:06.178Z,83.30
2018-05-13T18:15:33.776Z,83.29
2018-05-13T18:18:01.340Z,83.40
2018-05-13T18:20:29.472Z,83.32
2018-05-13T18:22:57.518Z,83.67
2018-05-13T18:25:25.224Z,83.62
2018-05-13T18:27:54.232Z,84.09
2018-05-13T18:30:24.332Z,84.14
2018-05-13T18:32:52.317Z,84.62
2018-05-13T18:35:21.636Z,83.97
2018-05-13T18:37:49.535Z,83.64
2018-05-13T18:40:17.499Z,83.37
2018-05-13T18:42:46.385Z,84.16
2018-05-13T18:45:15.315Z,84.62
2018-05-13T18:47:43.489Z,84.69
2018-05-13T18:50:11.833Z,85.26
2018-05-13T18:52:40.185Z,85.02
2018-05-13T18:55:09.323Z,85.04
2018-05-13T18:57:37.711Z,84.99
2018-05-13T19:00:06.321Z,85.84
2018-05-13T19:02:34.600Z,85.50
2018-05-13T19:05:03.667Z,85.06
2018-05-13T19:07:32.170Z,85.93
2018-05-13T19:10:01.095Z,86.02
2018-05-13T19:12:29.593Z,86.17
2018-05-13T19:14:58.754Z,86.17
2018-05-13T19:17:27.041Z,85.78
2018-05-13T19:19:55.873Z,85.90
2018-05-13T19:22:24.237Z,86.41
2018-05-13T19:24:52.504Z,86.36
2018-05-13T19:27:21.350Z,86.33
2018-05-13T19:29:49.947Z,85.85
2018-05-13T19:32:18.537Z,86.65
2018-05-13T19:34:46.868Z,86.00
2018-05-13T19:37:16.244Z,85.66
2018-05-13T19:39:44.972Z,86.28
2018-05-13T19:42:13.524Z,86.21
2018-05-13T19:44:42.093Z,86.37
2018-05-13T19:47:10.515Z,86.07
2018-05-13T19:49:39.325Z,86.62
2018-05-13T19:52:07.921Z,86.54
2018-05-13T19:54:36.267Z,86.20
2018-05-13T19:57:04.606Z,86.54
2018-05-13T19:59:33.094Z,86.32
2018-05-13T20:02:01.388Z,86.43
2018-05-13T20:04:29.980Z,87.07
2018-05-13T20:06:58.272Z,86.43
2018-05-13T20:09:26.588Z,86.03
2018-05-13T20:11:54.934Z,86.13
2018-05-13T20:14:23.472Z,86.09
2018-05-13T20:16:52.560Z,85.89
2018-05-13T20:19:20.824Z,86.50
2018-05-13T20:21:49.421Z,86.29
2018-05-13T20:24:17.721Z,86.23
2018-05-13T20:26:45.969Z,86.75
2018-05-13T20:29:14.802Z,86.53
2018-05-13T20:31:42.348Z,86.39
2018-05-13T20:34:10.128Z,86.49
2018-05-13T20:36:37.677Z,86.92
2018-05-13T20:39:05.206Z,86.42
2018-05-13T20:41:33.475Z,86.05
2018-05-13T20:44:00.999Z,85.94
2018-05-13T20:46:28.506Z,86.21
2018-05-13T20:48:56.042Z,87.00
2018-05-13T20:51:23.547Z,86.28
2018-05-13T20:53:51.217Z,86.40
2018-05-13T20:56:18.729Z,86.57
2018-05-13T20:58:46.218Z,86.24
2018-05-13T21:01:13.751Z,86.23
2018-05-13T21:03:41.269Z,86.44
2018-05-13T21:06:08.971Z,86.36
2018-05-13T21:08:36.463Z,86.12
2018-05-13T21:11:04.033Z,86.32
2018-05-13T21:13:31.573Z,86.34
2018-05-13T21:15:59.106Z,86.41
2018-05-13T21:18:26.658Z,86.46
2018-05-13T21:20:54.156Z,86.32
2018-05-13T21:23:21.645Z,86.14
2018-05-13T21:25:49.231Z,86.68
2018-05-13T21:28:16.726Z,86.53
2018-05-13T21:30:44.391Z,86.70
2018-05-13T21:33:11.905Z,85.74
2018-05-13T21:35:39.398Z,85.69
2018-05-13T21:38:06.921Z,85.87
2018-05-13T21:40:34.409Z,86.00
2018-05-13T21:43:02.244Z,85.69
2018-05-13T21:45:29.736Z,85.67
2018-05-13T21:47:57.250Z,85.92
2018-05-13T21:50:24.769Z,85.87
2018-05-13T21:52:52.275Z,85.94
2018-05-13T21:55:19.921Z,86.30
2018-05-13T21:57:47.427Z,86.60
2018-05-13T22:00:14.925Z,86.73
2018-05-13T22:02:42.437Z,86.51
2018-05-13T22:05:10.045Z,86.48
2018-05-13T22:07:37.961Z,87.05
2018-05-13T22:10:05.468Z,87.03
2018-05-13T22:12:32.958Z,87.23
2018-05-13T22:15:00.473Z,86.69
2018-05-13T22:17:27.998Z,87.66
2018-05-13T22:19:55.518Z,86.76
2018-05-13T22:22:23.014Z,87.13
2018-05-13T22:24:50.514Z,87.10
2018-05-13T22:27:18.024Z,86.89
2018-05-13T22:29:45.560Z,86.97
2018-05-13T22:32:13.273Z,85.91
2018-05-13T22:34:40.802Z,86.53
2018-05-13T22:37:08.308Z,85.58
2018-05-13T22:39:35.818Z,86.32
2018-05-13T22:42:03.389Z,85.50
2018-05-13T22:44:31.128Z,84.75
2018-05-13T22:46:58.613Z,85.05
2018-05-13T22:49:26.121Z,84.03
2018-05-13T22:51:53.629Z,84.63
2018-05-13T22:54:21.113Z,85.05
2018-05-13T22:56:48.643Z,84.40
2018-05-13T22:59:16.148Z,84.81
2018-05-13T23:01:43.634Z,84.22
2018-05-13T23:04:11.141Z,83.87
2018-05-13T23:06:38.633Z,85.53
2018-05-13T23:09:06.143Z,86.00
2018-05-13T23:11:33.656Z,87.44
2018-05-13T23:14:01.145Z,89.71
2018-05-13T23:16:28.629Z,86.80
2018-05-13T23:18:56.157Z,86.18
2018-05-13T23:21:23.641Z,88.87
2018-05-13T23:23:51.185Z,91.28
2018-05-13T23:26:18.698Z,91.60
2018-05-13T23:28:46.214Z,92.91
2018-05-13T23:31:13.701Z,94.11
2018-05-13T23:33:41.220Z,94.12
2018-05-13T23:36:08.705Z,93.98
2018-05-13T23:38:36.212Z,95.17
2018-05-13T23:41:03.956Z,95.38
2018-05-13T23:43:31.444Z,94.75
2018-05-13T23:45:58.928Z,94.31
2018-05-13T23:48:26.777Z,94.10
2018-05-13T23:50:54.263Z,92.50
2018-05-13T23:53:21.753Z,91.66
2018-05-13T23:55:49.287Z,92.32
2018-05-13T23:58:16.792Z,93.20
